Bill Jr — WCO6976 — position and weather

sailwx.info

Track history (hours):
 
Tides and Currents Weather Stations Pressure Air Temp Water Temp Dewpoint Dewpoint Depression Visibility Wind Speed Wind Dir Waves Ship Positions

Bill Jr

Owner: DAWSON VESSELS INC, MOBILE, AL. More information available from US FCC via Universal Licensing System and Coast Guard Vessel Documentation Center.

Last reported at 2015-Aug-29 03:19 UTC. Time now 2015-Aug-31 02:37 UTC.
Position N 29°56' W 090°08'.

Length 21 m.

MMSI: 366976750.

Date/timePositionNaut miles runAvg speedWind from/ knotsBaromVisibWave heightAir tempDewpointWater temp
2015-Aug-29 03:19N 29°56' W 090°08'3 3.9
2015-Aug-29 02:26N 29°55' W 090°05'0 0.2
2015-Aug-29 01:21N 29°54' W 090°05'0 0.0
2015-Aug-29 00:07N 29°54' W 090°05'0 0.0
2015-Aug-28 23:28N 29°54' W 090°05'0 0.0
2015-Aug-28 20:31N 29°54' W 090°05'0 0.0
2015-Aug-28 19:30N 29°54' W 090°05'0 0.0
2015-Aug-28 18:20N 29°54' W 090°05'0 0.0
2015-Aug-28 16:30N 29°54' W 090°05'0 0.0
2015-Aug-28 14:26N 29°54' W 090°05'0 0.0
2015-Aug-28 13:32N 29°54' W 090°05'4 0.1
2015-Aug-26 16:16N 29°57' W 090°08'0 0.5
2015-Aug-26 15:33N 29°56' W 090°08'0 0.0
2015-Aug-26 13:29N 29°56' W 090°08'0 0.0
2015-Aug-26 12:33N 29°56' W 090°08'0 0.2
2015-Aug-26 11:24N 29°56' W 090°09'0 0.3
2015-Aug-26 10:33N 29°56' W 090°08'0 0.0
2015-Aug-26 09:27N 29°56' W 090°08'0 0.0
2015-Aug-26 08:30N 29°56' W 090°08'0 0.0
2015-Aug-26 07:29N 29°56' W 090°08'0 0.0
2015-Aug-26 06:33N 29°56' W 090°08'0 0.0
2015-Aug-26 05:31N 29°56' W 090°08'0 0.0
2015-Aug-26 04:33N 29°56' W 090°08'0 0.0
2015-Aug-25 00:17N 29°56' W 090°09'0 0.0
2015-Aug-24 21:16N 29°56' W 090°08'0 0.1
2015-Aug-24 19:11N 29°57' W 090°09'1 0.6
2015-Aug-24 18:18N 29°56' W 090°09'2 0.0
2015-Aug-23 05:30N 29°57' W 090°10'2 1.2
2015-Aug-23 04:07N 29°56' W 090°08'0 0.1
2015-Aug-23 00:09N 29°56' W 090°08'0 0.2
2015-Aug-22 23:14N 29°56' W 090°08'2 0.6
2015-Aug-22 19:25N 29°54' W 090°07'  
2015-Aug-20 13:03N 29°55' W 090°04'0 0.0
2015-Aug-20 09:10N 29°55' W 090°04'  
Track history (hours):
 
Tides and Currents Weather Stations Pressure Air Temp Water Temp Dewpoint Dewpoint Depression Visibility Wind Speed Wind Dir Waves Ship Positions

Bill Jr

Owner: DAWSON VESSELS INC, MOBILE, AL. More information available from US FCC via Universal Licensing System and Coast Guard Vessel Documentation Center.

Last reported at 2015-Aug-29 03:19 UTC. Time now 2015-Aug-31 02:37 UTC.
Position N 29°56' W 090°08'.

Length 21 m.

MMSI: 366976750.

Date/timePositionNaut miles runAvg speedWind from/ knotsBaromVisibWave heightAir tempDewpointWater temp
2015-Aug-29 03:19N 29°56' W 090°08'3 3.9
2015-Aug-29 02:26N 29°55' W 090°05'0 0.2
2015-Aug-29 01:21N 29°54' W 090°05'0 0.0
2015-Aug-29 00:07N 29°54' W 090°05'0 0.0
2015-Aug-28 23:28N 29°54' W 090°05'0 0.0
2015-Aug-28 20:31N 29°54' W 090°05'0 0.0
2015-Aug-28 19:30N 29°54' W 090°05'0 0.0
2015-Aug-28 18:20N 29°54' W 090°05'0 0.0
2015-Aug-28 16:30N 29°54' W 090°05'0 0.0
2015-Aug-28 14:26N 29°54' W 090°05'0 0.0
2015-Aug-28 13:32N 29°54' W 090°05'4 0.1
2015-Aug-26 16:16N 29°57' W 090°08'0 0.5
2015-Aug-26 15:33N 29°56' W 090°08'0 0.0
2015-Aug-26 13:29N 29°56' W 090°08'0 0.0
2015-Aug-26 12:33N 29°56' W 090°08'0 0.2
2015-Aug-26 11:24N 29°56' W 090°09'0 0.3
2015-Aug-26 10:33N 29°56' W 090°08'0 0.0
2015-Aug-26 09:27N 29°56' W 090°08'0 0.0
2015-Aug-26 08:30N 29°56' W 090°08'0 0.0
2015-Aug-26 07:29N 29°56' W 090°08'0 0.0
2015-Aug-26 06:33N 29°56' W 090°08'0 0.0
2015-Aug-26 05:31N 29°56' W 090°08'0 0.0
2015-Aug-26 04:33N 29°56' W 090°08'0 0.0
2015-Aug-25 00:17N 29°56' W 090°09'0 0.0
2015-Aug-24 21:16N 29°56' W 090°08'0 0.1
2015-Aug-24 19:11N 29°57' W 090°09'1 0.6
2015-Aug-24 18:18N 29°56' W 090°09'2 0.0
2015-Aug-23 05:30N 29°57' W 090°10'2 1.2
2015-Aug-23 04:07N 29°56' W 090°08'0 0.1
2015-Aug-23 00:09N 29°56' W 090°08'0 0.2
2015-Aug-22 23:14N 29°56' W 090°08'2 0.6
2015-Aug-22 19:25N 29°54' W 090°07'  
2015-Aug-20 13:03N 29°55' W 090°04'0 0.0
2015-Aug-20 09:10N 29°55' W 090°04'  

Dump ship's entire track history